sensor_id;sensor_type;location;lat;lon;timestamp;pressure;altitude;pressure_sealevel;temperature;humidity
13661;BME280;6903;49.480;11.102;2022-11-15T00:00:51;97816.25;;;6.80;100.00
13661;BME280;6903;49.480;11.102;2022-11-15T00:03:18;97818.34;;;6.75;100.00
13661;BME280;6903;49.480;11.102;2022-11-15T00:05:44;97814.16;;;6.73;100.00
13661;BME280;6903;49.480;11.102;2022-11-15T00:08:10;97808.72;;;6.76;100.00
13661;BME280;6903;49.480;11.102;2022-11-15T00:10:35;97806.94;;;6.76;100.00
13661;BME280;6903;49.480;11.102;2022-11-15T00:13:07;97808.63;;;6.77;100.00
13661;BME280;6903;49.480;11.102;2022-11-15T00:15:40;97807.75;;;6.77;100.00
13661;BME280;6903;49.480;11.102;2022-11-15T00:18:12;97804.13;;;6.79;100.00
13661;BME280;6903;49.480;11.102;2022-11-15T00:20:38;97808.94;;;6.85;100.00
13661;BME280;6903;49.480;11.102;2022-11-15T00:23:04;97811.34;;;6.88;100.00
13661;BME280;6903;49.480;11.102;2022-11-15T00:25:30;97808.41;;;6.93;100.00
13661;BME280;6903;49.480;11.102;2022-11-15T00:27:56;97811.78;;;6.95;100.00
13661;BME280;6903;49.480;11.102;2022-11-15T00:30:22;97818.69;;;6.96;100.00
13661;BME280;6903;49.480;11.102;2022-11-15T00:32:47;97815.97;;;6.97;100.00
13661;BME280;6903;49.480;11.102;2022-11-15T00:35:12;97817.78;;;6.97;100.00
13661;BME280;6903;49.480;11.102;2022-11-15T00:37:37;97813.56;;;6.94;100.00
13661;BME280;6903;49.480;11.102;2022-11-15T00:40:03;97814.72;;;6.90;100.00
13661;BME280;6903;49.480;11.102;2022-11-15T00:42:29;97815.25;;;6.83;100.00
13661;BME280;6903;49.480;11.102;2022-11-15T00:44:54;97814.81;;;6.76;100.00
13661;BME280;6903;49.480;11.102;2022-11-15T00:47:19;97812.78;;;6.67;100.00
13661;BME280;6903;49.480;11.102;2022-11-15T00:49:44;97814.13;;;6.60;100.00
13661;BME280;6903;49.480;11.102;2022-11-15T00:52:10;97812.97;;;6.52;100.00
13661;BME280;6903;49.480;11.102;2022-11-15T00:54:35;97805.63;;;6.44;100.00
13661;BME280;6903;49.480;11.102;2022-11-15T00:57:00;97796.47;;;6.37;100.00
13661;BME280;6903;49.480;11.102;2022-11-15T00:59:26;97800.31;;;6.32;100.00
13661;BME280;6903;49.480;11.102;2022-11-15T01:01:51;97800.59;;;6.27;100.00
13661;BME280;6903;49.480;11.102;2022-11-15T01:04:16;97808.03;;;6.21;100.00
13661;BME280;6903;49.480;11.102;2022-11-15T01:06:42;97806.56;;;6.17;100.00
13661;BME280;6903;49.480;11.102;2022-11-15T01:09:07;97806.00;;;6.12;100.00
13661;BME280;6903;49.480;11.102;2022-11-15T01:11:33;97798.53;;;6.06;100.00
13661;BME280;6903;49.480;11.102;2022-11-15T01:13:58;97786.59;;;6.02;100.00
13661;BME280;6903;49.480;11.102;2022-11-15T01:16:24;97791.91;;;6.00;100.00
13661;BME280;6903;49.480;11.102;2022-11-15T01:18:50;97799.00;;;5.98;100.00
13661;BME280;6903;49.480;11.102;2022-11-15T01:21:17;97791.38;;;5.95;100.00
13661;BME280;6903;49.480;11.102;2022-11-15T01:23:43;97786.22;;;5.94;100.00
13661;BME280;6903;49.480;11.102;2022-11-15T01:26:11;97778.59;;;5.91;100.00
13661;BME280;6903;49.480;11.102;2022-11-15T01:28:39;97792.59;;;5.90;100.00
13661;BME280;6903;49.480;11.102;2022-11-15T01:31:08;97788.41;;;5.87;100.00
13661;BME280;6903;49.480;11.102;2022-11-15T01:33:35;97784.31;;;5.83;100.00
13661;BME280;6903;49.480;11.102;2022-11-15T01:36:06;97786.16;;;5.81;100.00
13661;BME280;6903;49.480;11.102;2022-11-15T01:38:32;97784.63;;;5.77;100.00
13661;BME280;6903;49.480;11.102;2022-11-15T01:40:58;97786.50;;;5.75;100.00
13661;BME280;6903;49.480;11.102;2022-11-15T01:43:31;97776.25;;;5.72;100.00
13661;BME280;6903;49.480;11.102;2022-11-15T01:46:04;97781.66;;;5.69;100.00
13661;BME280;6903;49.480;11.102;2022-11-15T01:48:34;97784.38;;;5.67;100.00
13661;BME280;6903;49.480;11.102;2022-11-15T01:51:03;97776.81;;;5.63;100.00
13661;BME280;6903;49.480;11.102;2022-11-15T01:53:29;97778.78;;;5.59;100.00
13661;BME280;6903;49.480;11.102;2022-11-15T01:55:57;97771.13;;;5.56;100.00
13661;BME280;6903;49.480;11.102;2022-11-15T01:58:22;97771.03;;;5.58;100.00
13661;BME280;6903;49.480;11.102;2022-11-15T02:00:48;97763.09;;;5.59;100.00
13661;BME280;6903;49.480;11.102;2022-11-15T02:03:15;97757.78;;;5.61;100.00
13661;BME280;6903;49.480;11.102;2022-11-15T02:05:41;97749.00;;;5.62;100.00
13661;BME280;6903;49.480;11.102;2022-11-15T02:08:07;97743.69;;;5.63;100.00
13661;BME280;6903;49.480;11.102;2022-11-15T02:10:33;97739.72;;;5.70;100.00
13661;BME280;6903;49.480;11.102;2022-11-15T02:12:59;97740.38;;;5.74;100.00
13661;BME280;6903;49.480;11.102;2022-11-15T02:15:30;97729.81;;;5.75;100.00
13661;BME280;6903;49.480;11.102;2022-11-15T02:18:27;97730.75;;;5.74;100.00
13661;BME280;6903;49.480;11.102;2022-11-15T02:21:11;97731.41;;;5.78;100.00
13661;BME280;6903;49.480;11.102;2022-11-15T02:32:03;97722.03;;;5.88;100.00
13661;BME280;6903;49.480;11.102;2022-11-15T02:37:34;97711.97;;;5.82;100.00
13661;BME280;6903;49.480;11.102;2022-11-15T02:40:20;97703.34;;;5.80;100.00
13661;BME280;6903;49.480;11.102;2022-11-15T02:43:04;97702.09;;;5.73;100.00
13661;BME280;6903;49.480;11.102;2022-11-15T02:45:55;97711.25;;;5.66;100.00
13661;BME280;6903;49.480;11.102;2022-11-15T02:48:24;97705.47;;;5.61;100.00
13661;BME280;6903;49.480;11.102;2022-11-15T02:50:51;97711.84;;;5.57;100.00
13661;BME280;6903;49.480;11.102;2022-11-15T02:53:16;97698.22;;;5.52;100.00
13661;BME280;6903;49.480;11.102;2022-11-15T02:55:45;97698.59;;;5.46;100.00
13661;BME280;6903;49.480;11.102;2022-11-15T02:58:26;97693.75;;;5.40;100.00
13661;BME280;6903;49.480;11.102;2022-11-15T03:06:52;97674.88;;;5.35;100.00
13661;BME280;6903;49.480;11.102;2022-11-15T03:09:24;97678.56;;;5.32;100.00
13661;BME280;6903;49.480;11.102;2022-11-15T03:12:03;97678.44;;;5.34;100.00
13661;BME280;6903;49.480;11.102;2022-11-15T03:14:35;97668.94;;;5.33;100.00
13661;BME280;6903;49.480;11.102;2022-11-15T03:17:24;97668.19;;;5.31;100.00
13661;BME280;6903;49.480;11.102;2022-11-15T03:20:12;97666.88;;;5.24;100.00
13661;BME280;6903;49.480;11.102;2022-11-15T03:22:43;97673.16;;;5.21;100.00
13661;BME280;6903;49.480;11.102;2022-11-15T03:25:16;97671.03;;;5.14;100.00
13661;BME280;6903;49.480;11.102;2022-11-15T03:27:48;97673.91;;;5.09;100.00
13661;BME280;6903;49.480;11.102;2022-11-15T03:30:15;97667.88;;;5.09;100.00
13661;BME280;6903;49.480;11.102;2022-11-15T03:32:55;97667.88;;;5.09;100.00
13661;BME280;6903;49.480;11.102;2022-11-15T03:35:24;97658.03;;;5.12;100.00
13661;BME280;6903;49.480;11.102;2022-11-15T03:38:09;97655.16;;;5.17;100.00
13661;BME280;6903;49.480;11.102;2022-11-15T03:40:40;97656.63;;;5.21;100.00
13661;BME280;6903;49.480;11.102;2022-11-15T03:45:54;97654.53;;;5.40;100.00
13661;BME280;6903;49.480;11.102;2022-11-15T03:48:24;97646.13;;;5.49;100.00
13661;BME280;6903;49.480;11.102;2022-11-15T03:50:51;97648.88;;;5.60;100.00
13661;BME280;6903;49.480;11.102;2022-11-15T03:53:17;97644.53;;;5.73;100.00
13661;BME280;6903;49.480;11.102;2022-11-15T03:55:42;97637.03;;;5.81;100.00
13661;BME280;6903;49.480;11.102;2022-11-15T03:58:08;97646.38;;;5.85;100.00
13661;BME280;6903;49.480;11.102;2022-11-15T04:00:33;97635.22;;;5.81;100.00
13661;BME280;6903;49.480;11.102;2022-11-15T04:02:59;97630.00;;;5.81;100.00
13661;BME280;6903;49.480;11.102;2022-11-15T04:05:24;97628.91;;;5.86;100.00
13661;BME280;6903;49.480;11.102;2022-11-15T04:07:49;97631.97;;;5.92;100.00
13661;BME280;6903;49.480;11.102;2022-11-15T04:10:15;97637.28;;;5.91;100.00
13661;BME280;6903;49.480;11.102;2022-11-15T04:12:43;97650.09;;;5.81;100.00
13661;BME280;6903;49.480;11.102;2022-11-15T04:15:11;97650.78;;;5.70;100.00
13661;BME280;6903;49.480;11.102;2022-11-15T04:20:18;97651.56;;;5.46;100.00
13661;BME280;6903;49.480;11.102;2022-11-15T04:23:06;97651.56;;;5.32;100.00
13661;BME280;6903;49.480;11.102;2022-11-15T04:25:52;97642.72;;;5.20;100.00
13661;BME280;6903;49.480;11.102;2022-11-15T04:28:18;97640.03;;;5.08;100.00
13661;BME280;6903;49.480;11.102;2022-11-15T04:30:43;97639.59;;;5.01;100.00
13661;BME280;6903;49.480;11.102;2022-11-15T04:33:08;97635.59;;;4.96;100.00
13661;BME280;6903;49.480;11.102;2022-11-15T04:35:34;97639.41;;;4.90;100.00
13661;BME280;6903;49.480;11.102;2022-11-15T04:38:00;97642.59;;;4.81;100.00
13661;BME280;6903;49.480;11.102;2022-11-15T04:40:26;97644.09;;;4.71;100.00
13661;BME280;6903;49.480;11.102;2022-11-15T04:42:51;97646.31;;;4.63;100.00
13661;BME280;6903;49.480;11.102;2022-11-15T04:45:16;97638.13;;;4.55;100.00
13661;BME280;6903;49.480;11.102;2022-11-15T04:47:45;97629.63;;;4.52;100.00
13661;BME280;6903;49.480;11.102;2022-11-15T04:50:12;97631.31;;;4.53;100.00
13661;BME280;6903;49.480;11.102;2022-11-15T04:52:40;97637.47;;;4.52;100.00
13661;BME280;6903;49.480;11.102;2022-11-15T04:55:06;97634.09;;;4.50;100.00
13661;BME280;6903;49.480;11.102;2022-11-15T04:57:31;97633.38;;;4.48;100.00
13661;BME280;6903;49.480;11.102;2022-11-15T04:59:56;97628.50;;;4.42;100.00
13661;BME280;6903;49.480;11.102;2022-11-15T05:02:22;97623.75;;;4.34;100.00
13661;BME280;6903;49.480;11.102;2022-11-15T05:04:47;97617.13;;;4.28;100.00
13661;BME280;6903;49.480;11.102;2022-11-15T05:07:12;97613.78;;;4.26;100.00
13661;BME280;6903;49.480;11.102;2022-11-15T05:09:38;97609.38;;;4.27;100.00
13661;BME280;6903;49.480;11.102;2022-11-15T05:12:03;97599.97;;;4.24;100.00
13661;BME280;6903;49.480;11.102;2022-11-15T05:14:28;97599.97;;;4.24;100.00
13661;BME280;6903;49.480;11.102;2022-11-15T05:16:54;97600.63;;;4.28;100.00
13661;BME280;6903;49.480;11.102;2022-11-15T05:19:19;97602.31;;;4.29;100.00
13661;BME280;6903;49.480;11.102;2022-11-15T05:21:44;97592.81;;;4.42;100.00
13661;BME280;6903;49.480;11.102;2022-11-15T05:24:10;97595.03;;;4.48;100.00
13661;BME280;6903;49.480;11.102;2022-11-15T05:26:36;97601.56;;;4.83;100.00
13661;BME280;6903;49.480;11.102;2022-11-15T05:29:02;97597.16;;;5.24;100.00
13661;BME280;6903;49.480;11.102;2022-11-15T05:31:27;97591.09;;;5.50;100.00
13661;BME280;6903;49.480;11.102;2022-11-15T05:33:54;97593.56;;;5.66;100.00
13661;BME280;6903;49.480;11.102;2022-11-15T05:36:41;97592.00;;;5.76;100.00
13661;BME280;6903;49.480;11.102;2022-11-15T05:39:07;97583.22;;;5.77;100.00
13661;BME280;6903;49.480;11.102;2022-11-15T05:41:49;97587.81;;;5.73;100.00
13661;BME280;6903;49.480;11.102;2022-11-15T05:44:17;97588.22;;;5.67;100.00
13661;BME280;6903;49.480;11.102;2022-11-15T05:46:45;97583.00;;;5.67;100.00
13661;BME280;6903;49.480;11.102;2022-11-15T05:49:15;97586.34;;;5.69;100.00
13661;BME280;6903;49.480;11.102;2022-11-15T05:51:43;97581.53;;;5.63;100.00
13661;BME280;6903;49.480;11.102;2022-11-15T05:54:09;97583.81;;;5.55;100.00
13661;BME280;6903;49.480;11.102;2022-11-15T05:56:35;97582.41;;;5.50;100.00
13661;BME280;6903;49.480;11.102;2022-11-15T05:59:00;97581.03;;;5.44;100.00
13661;BME280;6903;49.480;11.102;2022-11-15T06:01:26;97585.44;;;5.44;100.00
13661;BME280;6903;49.480;11.102;2022-11-15T06:03:52;97581.53;;;5.37;100.00
13661;BME280;6903;49.480;11.102;2022-11-15T06:06:17;97584.56;;;5.31;100.00
13661;BME280;6903;49.480;11.102;2022-11-15T06:08:42;97584.00;;;5.26;100.00
13661;BME280;6903;49.480;11.102;2022-11-15T06:11:08;97585.22;;;5.20;100.00
13661;BME280;6903;49.480;11.102;2022-11-15T06:13:33;97582.81;;;5.17;100.00
13661;BME280;6903;49.480;11.102;2022-11-15T06:15:59;97586.78;;;5.10;100.00
13661;BME280;6903;49.480;11.102;2022-11-15T06:18:24;97587.78;;;5.08;100.00
13661;BME280;6903;49.480;11.102;2022-11-15T06:20:50;97586.13;;;5.07;100.00
13661;BME280;6903;49.480;11.102;2022-11-15T06:23:15;97583.59;;;5.05;100.00
13661;BME280;6903;49.480;11.102;2022-11-15T06:25:40;97584.41;;;5.06;100.00
13661;BME280;6903;49.480;11.102;2022-11-15T06:28:06;97589.94;;;5.15;100.00
13661;BME280;6903;49.480;11.102;2022-11-15T06:30:31;97592.53;;;5.15;100.00
13661;BME280;6903;49.480;11.102;2022-11-15T06:33:04;97590.66;;;5.17;100.00
13661;BME280;6903;49.480;11.102;2022-11-15T06:35:33;97586.81;;;5.23;100.00
13661;BME280;6903;49.480;11.102;2022-11-15T06:38:07;97594.66;;;5.23;100.00
13661;BME280;6903;49.480;11.102;2022-11-15T06:40:35;97594.66;;;5.23;100.00
13661;BME280;6903;49.480;11.102;2022-11-15T06:43:00;97597.41;;;5.34;100.00
13661;BME280;6903;49.480;11.102;2022-11-15T06:45:26;97595.25;;;5.40;100.00
13661;BME280;6903;49.480;11.102;2022-11-15T06:47:51;97607.38;;;5.41;100.00
13661;BME280;6903;49.480;11.102;2022-11-15T06:50:17;97601.88;;;5.46;100.00
13661;BME280;6903;49.480;11.102;2022-11-15T06:52:42;97599.59;;;5.54;100.00
13661;BME280;6903;49.480;11.102;2022-11-15T06:55:08;97605.44;;;5.57;100.00
13661;BME280;6903;49.480;11.102;2022-11-15T06:57:34;97596.28;;;5.64;100.00
13661;BME280;6903;49.480;11.102;2022-11-15T06:59:59;97600.44;;;5.67;100.00
13661;BME280;6903;49.480;11.102;2022-11-15T07:02:25;97598.47;;;5.70;100.00
13661;BME280;6903;49.480;11.102;2022-11-15T07:04:50;97595.00;;;5.84;100.00
13661;BME280;6903;49.480;11.102;2022-11-15T07:07:15;97592.06;;;5.89;100.00
13661;BME280;6903;49.480;11.102;2022-11-15T07:09:41;97594.25;;;5.95;100.00
13661;BME280;6903;49.480;11.102;2022-11-15T07:12:06;97590.41;;;6.00;100.00
13661;BME280;6903;49.480;11.102;2022-11-15T07:14:31;97597.97;;;6.05;100.00
13661;BME280;6903;49.480;11.102;2022-11-15T07:16:57;97586.16;;;6.12;100.00
13661;BME280;6903;49.480;11.102;2022-11-15T07:19:22;97589.19;;;6.18;100.00
13661;BME280;6903;49.480;11.102;2022-11-15T07:21:47;97584.28;;;6.26;100.00
13661;BME280;6903;49.480;11.102;2022-11-15T07:24:13;97582.28;;;6.42;100.00
13661;BME280;6903;49.480;11.102;2022-11-15T07:26:38;97577.75;;;6.57;100.00
13661;BME280;6903;49.480;11.102;2022-11-15T07:29:03;97570.72;;;6.70;100.00
13661;BME280;6903;49.480;11.102;2022-11-15T07:31:29;97562.69;;;6.96;100.00
13661;BME280;6903;49.480;11.102;2022-11-15T07:33:54;97555.84;;;7.30;100.00
13661;BME280;6903;49.480;11.102;2022-11-15T07:36:19;97550.47;;;7.44;100.00
13661;BME280;6903;49.480;11.102;2022-11-15T07:38:45;97542.88;;;7.52;100.00
13661;BME280;6903;49.480;11.102;2022-11-15T07:41:10;97539.19;;;7.66;100.00
13661;BME280;6903;49.480;11.102;2022-11-15T07:43:35;97545.72;;;7.84;100.00
13661;BME280;6903;49.480;11.102;2022-11-15T07:46:05;97547.44;;;8.07;100.00
13661;BME280;6903;49.480;11.102;2022-11-15T07:48:34;97548.00;;;8.23;100.00
13661;BME280;6903;49.480;11.102;2022-11-15T07:50:59;97545.13;;;8.37;100.00
13661;BME280;6903;49.480;11.102;2022-11-15T07:53:24;97541.41;;;8.50;100.00
13661;BME280;6903;49.480;11.102;2022-11-15T07:55:50;97545.13;;;8.59;100.00
13661;BME280;6903;49.480;11.102;2022-11-15T07:58:15;97542.97;;;8.75;100.00
13661;BME280;6903;49.480;11.102;2022-11-15T08:00:40;97543.56;;;8.79;100.00
13661;BME280;6903;49.480;11.102;2022-11-15T08:03:08;97552.53;;;8.87;100.00
13661;BME280;6903;49.480;11.102;2022-11-15T08:05:35;97554.91;;;9.01;100.00
13661;BME280;6903;49.480;11.102;2022-11-15T08:08:01;97547.34;;;9.08;100.00
13661;BME280;6903;49.480;11.102;2022-11-15T08:10:27;97551.63;;;9.20;100.00
13661;BME280;6903;49.480;11.102;2022-11-15T08:12:59;97546.28;;;9.21;100.00
13661;BME280;6903;49.480;11.102;2022-11-15T08:15:26;97543.94;;;9.28;100.00
13661;BME280;6903;49.480;11.102;2022-11-15T08:17:56;97541.31;;;9.39;100.00
13661;BME280;6903;49.480;11.102;2022-11-15T08:20:22;97542.09;;;9.50;100.00
13661;BME280;6903;49.480;11.102;2022-11-15T08:22:48;97534.31;;;9.60;100.00
13661;BME280;6903;49.480;11.102;2022-11-15T08:25:13;97538.75;;;9.80;100.00
13661;BME280;6903;49.480;11.102;2022-11-15T08:27:39;97535.66;;;9.95;100.00
13661;BME280;6903;49.480;11.102;2022-11-15T08:30:05;97531.25;;;10.17;100.00
13661;BME280;6903;49.480;11.102;2022-11-15T08:32:31;97521.97;;;10.43;100.00
13661;BME280;6903;49.480;11.102;2022-11-15T08:34:56;97535.81;;;10.65;100.00
13661;BME280;6903;49.480;11.102;2022-11-15T08:37:21;97529.09;;;10.82;100.00
13661;BME280;6903;49.480;11.102;2022-11-15T08:39:46;97526.78;;;10.98;100.00
13661;BME280;6903;49.480;11.102;2022-11-15T08:42:12;97523.47;;;11.15;100.00
13661;BME280;6903;49.480;11.102;2022-11-15T08:44:38;97522.13;;;11.39;100.00
13661;BME280;6903;49.480;11.102;2022-11-15T08:47:03;97513.69;;;11.65;100.00
13661;BME280;6903;49.480;11.102;2022-11-15T08:49:29;97511.22;;;11.92;100.00
13661;BME280;6903;49.480;11.102;2022-11-15T08:51:54;97524.94;;;12.14;100.00
13661;BME280;6903;49.480;11.102;2022-11-15T08:54:19;97521.69;;;12.30;100.00
13661;BME280;6903;49.480;11.102;2022-11-15T08:56:45;97520.00;;;12.38;100.00
13661;BME280;6903;49.480;11.102;2022-11-15T08:59:10;97517.66;;;12.72;100.00
13661;BME280;6903;49.480;11.102;2022-11-15T09:01:35;97519.34;;;13.00;100.00
13661;BME280;6903;49.480;11.102;2022-11-15T09:04:01;97516.81;;;13.35;100.00
13661;BME280;6903;49.480;11.102;2022-11-15T09:06:26;97509.19;;;13.67;100.00
13661;BME280;6903;49.480;11.102;2022-11-15T09:08:51;97506.75;;;13.91;100.00
13661;BME280;6903;49.480;11.102;2022-11-15T09:11:17;97506.47;;;14.20;100.00
13661;BME280;6903;49.480;11.102;2022-11-15T09:13:45;97503.31;;;14.42;100.00
13661;BME280;6903;49.480;11.102;2022-11-15T09:16:10;97502.81;;;14.72;100.00
13661;BME280;6903;49.480;11.102;2022-11-15T09:18:38;97509.41;;;14.94;100.00
13661;BME280;6903;49.480;11.102;2022-11-15T09:21:03;97499.16;;;15.07;100.00
13661;BME280;6903;49.480;11.102;2022-11-15T09:23:29;97506.63;;;15.03;100.00
13661;BME280;6903;49.480;11.102;2022-11-15T09:26:00;97494.47;;;14.93;98.38
13661;BME280;6903;49.480;11.102;2022-11-15T09:28:26;97492.59;;;14.85;92.46
13661;BME280;6903;49.480;11.102;2022-11-15T09:30:56;97486.03;;;14.64;88.25
13661;BME280;6903;49.480;11.102;2022-11-15T09:33:21;97478.19;;;14.54;91.32
13661;BME280;6903;49.480;11.102;2022-11-15T09:35:46;97480.84;;;14.54;90.59
13661;BME280;6903;49.480;11.102;2022-11-15T09:38:12;97481.91;;;14.69;94.79
13661;BME280;6903;49.480;11.102;2022-11-15T09:40:37;97481.34;;;14.83;89.48
13661;BME280;6903;49.480;11.102;2022-11-15T09:43:32;97484.88;;;15.08;95.50
13661;BME280;6903;49.480;11.102;2022-11-15T09:46:05;97465.91;;;15.36;94.38
13661;BME280;6903;49.480;11.102;2022-11-15T09:48:55;97461.44;;;15.53;85.22
13661;BME280;6903;49.480;11.102;2022-11-15T09:51:35;97465.28;;;15.50;83.30
13661;BME280;6903;49.480;11.102;2022-11-15T09:54:08;97459.78;;;15.44;83.80
13661;BME280;6903;49.480;11.102;2022-11-15T09:56:38;97457.66;;;15.55;87.08
13661;BME280;6903;49.480;11.102;2022-11-15T10:01:44;97452.16;;;15.49;83.81
13661;BME280;6903;49.480;11.102;2022-11-15T10:04:13;97445.34;;;15.63;85.46
13661;BME280;6903;49.480;11.102;2022-11-15T10:06:44;97444.19;;;15.81;86.20
13661;BME280;6903;49.480;11.102;2022-11-15T10:09:20;97452.34;;;15.96;86.07
13661;BME280;6903;49.480;11.102;2022-11-15T10:11:49;97443.00;;;16.08;82.51
13661;BME280;6903;49.480;11.102;2022-11-15T10:14:24;97448.31;;;16.16;78.73
13661;BME280;6903;49.480;11.102;2022-11-15T10:17:02;97438.63;;;16.39;86.04
13661;BME280;6903;49.480;11.102;2022-11-15T10:22:28;97431.97;;;16.43;72.88
13661;BME280;6903;49.480;11.102;2022-11-15T10:27:42;97420.25;;;16.76;75.23
13661;BME280;6903;49.480;11.102;2022-11-15T10:30:13;97406.97;;;16.68;73.88
13661;BME280;6903;49.480;11.102;2022-11-15T10:32:40;97401.59;;;16.76;71.19
13661;BME280;6903;49.480;11.102;2022-11-15T10:35:28;97393.50;;;16.61;68.70
13661;BME280;6903;49.480;11.102;2022-11-15T10:38:09;97390.66;;;16.63;67.94
13661;BME280;6903;49.480;11.102;2022-11-15T10:40:35;97389.84;;;16.62;68.42
13661;BME280;6903;49.480;11.102;2022-11-15T10:45:36;97386.56;;;16.52;67.01
13661;BME280;6903;49.480;11.102;2022-11-15T10:50:36;97375.78;;;16.38;65.31
13661;BME280;6903;49.480;11.102;2022-11-15T10:53:02;97372.59;;;16.50;68.29
13661;BME280;6903;49.480;11.102;2022-11-15T10:55:30;97371.53;;;16.59;65.11
13661;BME280;6903;49.480;11.102;2022-11-15T10:58:19;97367.75;;;16.54;65.78
13661;BME280;6903;49.480;11.102;2022-11-15T11:00:45;97359.19;;;16.74;66.71
13661;BME280;6903;49.480;11.102;2022-11-15T11:08:30;97354.59;;;16.91;66.20
13661;BME280;6903;49.480;11.102;2022-11-15T11:11:01;97354.06;;;16.95;62.86
13661;BME280;6903;49.480;11.102;2022-11-15T11:13:32;97352.28;;;16.88;64.73
13661;BME280;6903;49.480;11.102;2022-11-15T11:16:17;97349.97;;;17.08;64.44
13661;BME280;6903;49.480;11.102;2022-11-15T11:21:51;97342.34;;;17.27;62.85
13661;BME280;6903;49.480;11.102;2022-11-15T11:29:53;97341.59;;;17.41;63.56
13661;BME280;6903;49.480;11.102;2022-11-15T11:32:28;97336.47;;;17.54;64.02
13661;BME280;6903;49.480;11.102;2022-11-15T11:35:20;97331.16;;;17.54;61.66
13661;BME280;6903;49.480;11.102;2022-11-15T11:38:01;97332.53;;;17.50;61.95
13661;BME280;6903;49.480;11.102;2022-11-15T11:40:56;97321.06;;;17.42;61.05
13661;BME280;6903;49.480;11.102;2022-11-15T11:43:30;97317.25;;;17.44;62.83
13661;BME280;6903;49.480;11.102;2022-11-15T11:51:19;97303.59;;;17.47;61.19
13661;BME280;6903;49.480;11.102;2022-11-15T11:53:56;97297.75;;;17.44;63.00
13661;BME280;6903;49.480;11.102;2022-11-15T11:56:29;97307.72;;;17.50;63.72
13661;BME280;6903;49.480;11.102;2022-11-15T11:59:07;97290.19;;;17.55;64.40
13661;BME280;6903;49.480;11.102;2022-11-15T12:01:39;97294.13;;;17.59;63.37
13661;BME280;6903;49.480;11.102;2022-11-15T12:04:23;97286.25;;;17.43;63.96
13661;BME280;6903;49.480;11.102;2022-11-15T12:06:59;97287.03;;;17.29;63.59
13661;BME280;6903;49.480;11.102;2022-11-15T12:09:32;97284.81;;;17.18;63.22
13661;BME280;6903;49.480;11.102;2022-11-15T12:12:17;97273.19;;;17.11;63.80
13661;BME280;6903;49.480;11.102;2022-11-15T12:14:53;97275.06;;;17.11;64.21
13661;BME280;6903;49.480;11.102;2022-11-15T12:17:24;97274.50;;;17.15;65.14
13661;BME280;6903;49.480;11.102;2022-11-15T12:20:02;97274.69;;;17.14;65.51
13661;BME280;6903;49.480;11.102;2022-11-15T12:25:33;97275.75;;;17.05;68.35
13661;BME280;6903;49.480;11.102;2022-11-15T12:30:53;97271.09;;;16.84;70.57
13661;BME280;6903;49.480;11.102;2022-11-15T12:33:37;97263.81;;;16.78;71.24
13661;BME280;6903;49.480;11.102;2022-11-15T12:38:54;97259.19;;;16.72;71.45
13661;BME280;6903;49.480;11.102;2022-11-15T12:41:21;97253.53;;;16.75;72.35
13661;BME280;6903;49.480;11.102;2022-11-15T12:43:48;97254.16;;;16.77;72.96
13661;BME280;6903;49.480;11.102;2022-11-15T12:46:59;97253.97;;;16.78;73.36
13661;BME280;6903;49.480;11.102;2022-11-15T12:49:42;97255.94;;;16.84;72.20
13661;BME280;6903;49.480;11.102;2022-11-15T12:59:54;97254.97;;;17.00;73.53
13661;BME280;6903;49.480;11.102;2022-11-15T13:02:24;97247.66;;;17.02;74.96
13661;BME280;6903;49.480;11.102;2022-11-15T13:04:51;97243.78;;;17.05;74.92
13661;BME280;6903;49.480;11.102;2022-11-15T13:10:36;97241.66;;;17.00;78.67
13661;BME280;6903;49.480;11.102;2022-11-15T13:13:04;97241.38;;;16.95;74.74
13661;BME280;6903;49.480;11.102;2022-11-15T13:15:55;97238.81;;;17.02;77.93
13661;BME280;6903;49.480;11.102;2022-11-15T13:20:59;97237.41;;;17.14;75.55
13661;BME280;6903;49.480;11.102;2022-11-15T13:23:25;97236.38;;;17.15;75.29
13661;BME280;6903;49.480;11.102;2022-11-15T13:25:59;97231.59;;;17.10;76.25
13661;BME280;6903;49.480;11.102;2022-11-15T13:28:38;97225.44;;;17.10;75.71
13661;BME280;6903;49.480;11.102;2022-11-15T13:31:24;97228.16;;;17.02;75.33
13661;BME280;6903;49.480;11.102;2022-11-15T13:33:50;97217.41;;;16.95;76.23
13661;BME280;6903;49.480;11.102;2022-11-15T13:36:22;97210.69;;;16.84;77.71
13661;BME280;6903;49.480;11.102;2022-11-15T13:41:30;97203.44;;;16.70;79.23
13661;BME280;6903;49.480;11.102;2022-11-15T13:43:57;97206.00;;;16.64;76.88
13661;BME280;6903;49.480;11.102;2022-11-15T13:46:33;97195.56;;;16.54;77.95
13661;BME280;6903;49.480;11.102;2022-11-15T13:49:08;97202.00;;;16.37;76.59
13661;BME280;6903;49.480;11.102;2022-11-15T13:51:52;97195.56;;;16.24;79.12
13661;BME280;6903;49.480;11.102;2022-11-15T13:54:35;97197.66;;;16.14;79.08
13661;BME280;6903;49.480;11.102;2022-11-15T13:59:44;97181.09;;;16.04;83.20
13661;BME280;6903;49.480;11.102;2022-11-15T14:02:17;97180.59;;;16.00;83.58
13661;BME280;6903;49.480;11.102;2022-11-15T14:04:57;97174.97;;;15.95;86.53
13661;BME280;6903;49.480;11.102;2022-11-15T14:07:26;97175.50;;;15.91;85.89
13661;BME280;6903;49.480;11.102;2022-11-15T14:09:52;97174.16;;;15.87;86.64
13661;BME280;6903;49.480;11.102;2022-11-15T14:12:33;97175.72;;;15.81;89.22
13661;BME280;6903;49.480;11.102;2022-11-15T14:15:01;97179.88;;;15.76;90.83
13661;BME280;6903;49.480;11.102;2022-11-15T14:19:56;97180.28;;;15.56;93.37
13661;BME280;6903;49.480;11.102;2022-11-15T14:22:24;97174.81;;;15.50;95.99
13661;BME280;6903;49.480;11.102;2022-11-15T14:25:17;97179.50;;;15.40;100.00
13661;BME280;6903;49.480;11.102;2022-11-15T14:28:07;97177.34;;;15.27;100.00
13661;BME280;6903;49.480;11.102;2022-11-15T14:30:30;97177.69;;;15.16;100.00
13661;BME280;6903;49.480;11.102;2022-11-15T14:32:55;97176.25;;;15.06;100.00
13661;BME280;6903;49.480;11.102;2022-11-15T14:35:22;97174.75;;;14.95;100.00
13661;BME280;6903;49.480;11.102;2022-11-15T14:37:48;97175.75;;;14.86;100.00